Villa Guillermina, Argentina
Current Conditions -  °F | °C
As of 2:00 PM on Thursday 30 Oct 2014 (Local Time) from SARE Reporting Station
Overcast Overcast  
Wind Chill: 75°   Ceiling: 1000
Heat Index: 75°   Visibility: 6mi
Dew Point: 66°   Wind: 7mph
Humidity: 73%   Direction: 70°ENE
Pressure: 29.77"   Gusts: NA
Location:  28.23°S, 59.47°W
Report Text: SARE 301700Z 07006KT 9999 BKN010 OVC10024/19 Q1008
Loading
Personal Weather Stations






























Interactive Weather Map
Tropical Storm Tracking
New forecast layout! Learn more

10-Day Weather Forecast

Advertisements
Track Severe Weather on mobile